sensor_id;sensor_type;location;lat;lon;timestamp;temperature;humidity
37460;DHT22;23318;50.966;5.284;2023-09-19T00:01:32;15.40;99.90
37460;DHT22;23318;50.966;5.284;2023-09-19T00:03:58;15.40;99.90
37460;DHT22;23318;50.966;5.284;2023-09-19T00:06:23;15.30;99.90
37460;DHT22;23318;50.966;5.284;2023-09-19T00:08:51;15.30;99.90
37460;DHT22;23318;50.966;5.284;2023-09-19T00:11:17;15.30;99.90
37460;DHT22;23318;50.966;5.284;2023-09-19T00:13:43;15.30;99.90
37460;DHT22;23318;50.966;5.284;2023-09-19T00:16:11;15.30;99.90
37460;DHT22;23318;50.966;5.284;2023-09-19T00:18:38;15.30;99.90
37460;DHT22;23318;50.966;5.284;2023-09-19T00:21:04;15.20;99.90
37460;DHT22;23318;50.966;5.284;2023-09-19T00:23:33;15.30;99.90
37460;DHT22;23318;50.966;5.284;2023-09-19T00:25:59;15.20;99.90
37460;DHT22;23318;50.966;5.284;2023-09-19T00:28:25;15.20;99.90
37460;DHT22;23318;50.966;5.284;2023-09-19T00:30:51;15.30;99.90
37460;DHT22;23318;50.966;5.284;2023-09-19T00:33:20;15.20;99.90
37460;DHT22;23318;50.966;5.284;2023-09-19T00:35:50;15.20;99.90
37460;DHT22;23318;50.966;5.284;2023-09-19T00:38:16;15.20;99.90
37460;DHT22;23318;50.966;5.284;2023-09-19T00:40:44;15.20;99.90
37460;DHT22;23318;50.966;5.284;2023-09-19T00:43:10;15.20;99.90
37460;DHT22;23318;50.966;5.284;2023-09-19T00:45:37;15.20;99.90
37460;DHT22;23318;50.966;5.284;2023-09-19T00:48:07;15.20;99.90
37460;DHT22;23318;50.966;5.284;2023-09-19T00:50:35;15.30;99.90
37460;DHT22;23318;50.966;5.284;2023-09-19T00:53:01;15.30;99.90
37460;DHT22;23318;50.966;5.284;2023-09-19T00:55:29;15.30;99.90
37460;DHT22;23318;50.966;5.284;2023-09-19T00:57:56;15.20;99.90
37460;DHT22;23318;50.966;5.284;2023-09-19T01:00:22;15.20;99.90
37460;DHT22;23318;50.966;5.284;2023-09-19T01:02:49;15.30;99.90
37460;DHT22;23318;50.966;5.284;2023-09-19T01:05:15;15.30;99.90
37460;DHT22;23318;50.966;5.284;2023-09-19T01:07:41;15.20;99.90
37460;DHT22;23318;50.966;5.284;2023-09-19T01:10:09;15.20;99.90
37460;DHT22;23318;50.966;5.284;2023-09-19T01:12:55;15.10;99.90
37460;DHT22;23318;50.966;5.284;2023-09-19T01:29:47;14.80;99.90
37460;DHT22;23318;50.966;5.284;2023-09-19T01:32:17;14.90;99.90
37460;DHT22;23318;50.966;5.284;2023-09-19T01:34:55;14.90;99.90
37460;DHT22;23318;50.966;5.284;2023-09-19T01:37:23;14.90;99.90
37460;DHT22;23318;50.966;5.284;2023-09-19T01:39:55;14.80;99.90
37460;DHT22;23318;50.966;5.284;2023-09-19T01:47:37;14.70;99.90
37460;DHT22;23318;50.966;5.284;2023-09-19T01:50:20;14.70;99.90
37460;DHT22;23318;50.966;5.284;2023-09-19T01:55:49;14.70;99.90
37460;DHT22;23318;50.966;5.284;2023-09-19T02:00:51;14.60;99.90
37460;DHT22;23318;50.966;5.284;2023-09-19T02:03:18;14.60;99.90
37460;DHT22;23318;50.966;5.284;2023-09-19T02:05:53;14.60;99.90
37460;DHT22;23318;50.966;5.284;2023-09-19T02:08:20;14.50;99.90
37460;DHT22;23318;50.966;5.284;2023-09-19T02:10:49;14.60;99.90
37460;DHT22;23318;50.966;5.284;2023-09-19T02:13:18;14.60;99.90
37460;DHT22;23318;50.966;5.284;2023-09-19T02:15:45;14.50;99.90
37460;DHT22;23318;50.966;5.284;2023-09-19T02:18:12;14.40;99.90
37460;DHT22;23318;50.966;5.284;2023-09-19T02:20:38;14.40;99.90
37460;DHT22;23318;50.966;5.284;2023-09-19T02:23:04;14.40;99.90
37460;DHT22;23318;50.966;5.284;2023-09-19T02:25:30;14.40;99.90
37460;DHT22;23318;50.966;5.284;2023-09-19T02:27:57;14.40;99.90
37460;DHT22;23318;50.966;5.284;2023-09-19T02:30:24;14.40;99.90
37460;DHT22;23318;50.966;5.284;2023-09-19T02:32:53;14.30;99.90
37460;DHT22;23318;50.966;5.284;2023-09-19T02:35:18;14.40;99.90
37460;DHT22;23318;50.966;5.284;2023-09-19T02:37:48;14.40;99.90
37460;DHT22;23318;50.966;5.284;2023-09-19T02:40:14;14.30;99.90
37460;DHT22;23318;50.966;5.284;2023-09-19T02:42:48;14.30;99.90
37460;DHT22;23318;50.966;5.284;2023-09-19T02:45:16;14.40;99.90
37460;DHT22;23318;50.966;5.284;2023-09-19T02:47:44;14.40;99.90
37460;DHT22;23318;50.966;5.284;2023-09-19T02:50:10;14.40;99.90
37460;DHT22;23318;50.966;5.284;2023-09-19T02:52:41;14.40;99.90
37460;DHT22;23318;50.966;5.284;2023-09-19T02:55:09;14.40;99.90
37460;DHT22;23318;50.966;5.284;2023-09-19T02:57:35;14.40;99.90
37460;DHT22;23318;50.966;5.284;2023-09-19T03:00:07;14.50;99.90
37460;DHT22;23318;50.966;5.284;2023-09-19T03:02:33;14.40;99.90
37460;DHT22;23318;50.966;5.284;2023-09-19T03:05:00;14.40;99.90
37460;DHT22;23318;50.966;5.284;2023-09-19T03:07:26;14.40;99.90
37460;DHT22;23318;50.966;5.284;2023-09-19T03:09:51;14.40;99.90
37460;DHT22;23318;50.966;5.284;2023-09-19T03:12:18;14.30;99.90
37460;DHT22;23318;50.966;5.284;2023-09-19T03:14:44;14.30;99.90
37460;DHT22;23318;50.966;5.284;2023-09-19T03:17:09;14.30;99.90
37460;DHT22;23318;50.966;5.284;2023-09-19T03:19:35;14.30;99.90
37460;DHT22;23318;50.966;5.284;2023-09-19T03:22:03;14.40;99.90
37460;DHT22;23318;50.966;5.284;2023-09-19T03:24:28;14.40;99.90
37460;DHT22;23318;50.966;5.284;2023-09-19T03:26:54;14.40;99.90
37460;DHT22;23318;50.966;5.284;2023-09-19T03:29:20;14.50;99.90
37460;DHT22;23318;50.966;5.284;2023-09-19T03:31:46;14.50;99.90
37460;DHT22;23318;50.966;5.284;2023-09-19T03:34:11;14.50;99.90
37460;DHT22;23318;50.966;5.284;2023-09-19T03:36:37;14.50;99.90
37460;DHT22;23318;50.966;5.284;2023-09-19T03:39:03;14.40;99.90
37460;DHT22;23318;50.966;5.284;2023-09-19T03:41:31;14.40;99.90
37460;DHT22;23318;50.966;5.284;2023-09-19T03:43:57;14.40;99.90
37460;DHT22;23318;50.966;5.284;2023-09-19T03:46:22;14.40;99.90
37460;DHT22;23318;50.966;5.284;2023-09-19T03:48:48;14.40;99.90
37460;DHT22;23318;50.966;5.284;2023-09-19T03:51:14;14.40;99.90
37460;DHT22;23318;50.966;5.284;2023-09-19T03:53:39;14.50;99.90
37460;DHT22;23318;50.966;5.284;2023-09-19T03:56:05;14.50;99.90
37460;DHT22;23318;50.966;5.284;2023-09-19T03:58:31;14.50;99.90
37460;DHT22;23318;50.966;5.284;2023-09-19T04:00:57;14.50;99.90
37460;DHT22;23318;50.966;5.284;2023-09-19T04:03:24;14.50;99.90
37460;DHT22;23318;50.966;5.284;2023-09-19T04:06:00;14.60;99.90
37460;DHT22;23318;50.966;5.284;2023-09-19T04:08:26;14.50;99.90
37460;DHT22;23318;50.966;5.284;2023-09-19T04:10:51;14.50;99.90
37460;DHT22;23318;50.966;5.284;2023-09-19T04:13:18;14.50;99.90
37460;DHT22;23318;50.966;5.284;2023-09-19T04:15:44;14.60;99.90
37460;DHT22;23318;50.966;5.284;2023-09-19T04:18:11;14.60;99.90
37460;DHT22;23318;50.966;5.284;2023-09-19T04:20:37;14.60;99.90
37460;DHT22;23318;50.966;5.284;2023-09-19T04:23:03;14.50;99.90
37460;DHT22;23318;50.966;5.284;2023-09-19T04:25:30;14.50;99.90
37460;DHT22;23318;50.966;5.284;2023-09-19T04:27:57;14.60;99.90
37460;DHT22;23318;50.966;5.284;2023-09-19T04:30:23;14.60;99.90
37460;DHT22;23318;50.966;5.284;2023-09-19T04:32:48;14.60;99.90
37460;DHT22;23318;50.966;5.284;2023-09-19T04:35:16;14.70;99.90
37460;DHT22;23318;50.966;5.284;2023-09-19T04:37:42;14.50;99.90
37460;DHT22;23318;50.966;5.284;2023-09-19T04:40:08;14.40;99.90
37460;DHT22;23318;50.966;5.284;2023-09-19T04:42:39;14.40;99.90
37460;DHT22;23318;50.966;5.284;2023-09-19T04:45:05;14.10;99.90
37460;DHT22;23318;50.966;5.284;2023-09-19T04:47:31;14.00;99.90
37460;DHT22;23318;50.966;5.284;2023-09-19T04:49:57;13.90;99.90
37460;DHT22;23318;50.966;5.284;2023-09-19T04:52:24;13.90;99.90
37460;DHT22;23318;50.966;5.284;2023-09-19T04:54:50;13.80;99.90
37460;DHT22;23318;50.966;5.284;2023-09-19T04:57:15;13.80;99.90
37460;DHT22;23318;50.966;5.284;2023-09-19T04:59:41;13.90;99.90
37460;DHT22;23318;50.966;5.284;2023-09-19T05:02:07;13.90;99.90
37460;DHT22;23318;50.966;5.284;2023-09-19T05:04:37;13.90;99.90
37460;DHT22;23318;50.966;5.284;2023-09-19T05:07:04;13.90;99.90
37460;DHT22;23318;50.966;5.284;2023-09-19T05:09:29;14.00;99.90
37460;DHT22;23318;50.966;5.284;2023-09-19T05:11:55;14.10;99.90
37460;DHT22;23318;50.966;5.284;2023-09-19T05:14:22;14.10;99.90
37460;DHT22;23318;50.966;5.284;2023-09-19T05:16:48;14.10;99.90
37460;DHT22;23318;50.966;5.284;2023-09-19T05:19:13;14.10;99.90
37460;DHT22;23318;50.966;5.284;2023-09-19T05:21:39;14.20;99.90
37460;DHT22;23318;50.966;5.284;2023-09-19T05:24:05;14.20;99.90
37460;DHT22;23318;50.966;5.284;2023-09-19T05:26:34;14.20;99.90
37460;DHT22;23318;50.966;5.284;2023-09-19T05:29:00;14.10;99.90
37460;DHT22;23318;50.966;5.284;2023-09-19T05:31:28;14.10;99.90
37460;DHT22;23318;50.966;5.284;2023-09-19T05:33:54;14.20;99.90
37460;DHT22;23318;50.966;5.284;2023-09-19T05:36:20;14.20;99.90
37460;DHT22;23318;50.966;5.284;2023-09-19T05:38:46;14.20;99.90
37460;DHT22;23318;50.966;5.284;2023-09-19T05:41:15;14.10;99.90
37460;DHT22;23318;50.966;5.284;2023-09-19T05:43:41;14.10;99.90
37460;DHT22;23318;50.966;5.284;2023-09-19T05:46:07;14.10;99.90
37460;DHT22;23318;50.966;5.284;2023-09-19T05:48:34;14.10;99.90
37460;DHT22;23318;50.966;5.284;2023-09-19T05:50:59;14.20;99.90
37460;DHT22;23318;50.966;5.284;2023-09-19T05:53:26;14.10;99.90
37460;DHT22;23318;50.966;5.284;2023-09-19T05:55:52;14.10;99.90
37460;DHT22;23318;50.966;5.284;2023-09-19T05:58:19;14.10;99.90
37460;DHT22;23318;50.966;5.284;2023-09-19T06:00:45;14.10;99.90
37460;DHT22;23318;50.966;5.284;2023-09-19T06:03:12;14.10;99.90
37460;DHT22;23318;50.966;5.284;2023-09-19T06:05:39;14.10;99.90
37460;DHT22;23318;50.966;5.284;2023-09-19T06:08:07;14.20;99.90
37460;DHT22;23318;50.966;5.284;2023-09-19T06:10:36;14.20;99.90
37460;DHT22;23318;50.966;5.284;2023-09-19T06:13:03;14.20;99.90
37460;DHT22;23318;50.966;5.284;2023-09-19T06:15:31;14.20;99.90
37460;DHT22;23318;50.966;5.284;2023-09-19T06:17:59;14.20;99.90
37460;DHT22;23318;50.966;5.284;2023-09-19T06:20:25;14.30;99.90
37460;DHT22;23318;50.966;5.284;2023-09-19T06:22:52;14.30;99.90
37460;DHT22;23318;50.966;5.284;2023-09-19T06:25:18;14.30;99.90
37460;DHT22;23318;50.966;5.284;2023-09-19T06:27:48;14.20;99.90
37460;DHT22;23318;50.966;5.284;2023-09-19T06:30:14;14.30;99.90
37460;DHT22;23318;50.966;5.284;2023-09-19T06:32:41;14.40;99.90
37460;DHT22;23318;50.966;5.284;2023-09-19T06:35:10;14.40;99.90
37460;DHT22;23318;50.966;5.284;2023-09-19T06:37:37;14.30;99.90
37460;DHT22;23318;50.966;5.284;2023-09-19T06:40:15;14.40;99.90
37460;DHT22;23318;50.966;5.284;2023-09-19T06:42:42;14.50;99.90
37460;DHT22;23318;50.966;5.284;2023-09-19T06:45:08;14.50;99.90
37460;DHT22;23318;50.966;5.284;2023-09-19T06:47:37;14.40;99.90
37460;DHT22;23318;50.966;5.284;2023-09-19T06:50:03;14.50;99.90
37460;DHT22;23318;50.966;5.284;2023-09-19T06:52:30;14.50;99.90
37460;DHT22;23318;50.966;5.284;2023-09-19T06:54:55;14.60;99.90
37460;DHT22;23318;50.966;5.284;2023-09-19T06:57:22;14.70;99.90
37460;DHT22;23318;50.966;5.284;2023-09-19T06:59:48;14.70;99.90
37460;DHT22;23318;50.966;5.284;2023-09-19T07:02:13;14.80;99.90
37460;DHT22;23318;50.966;5.284;2023-09-19T07:04:39;14.80;99.90
37460;DHT22;23318;50.966;5.284;2023-09-19T07:07:06;14.90;99.90
37460;DHT22;23318;50.966;5.284;2023-09-19T07:09:34;14.90;99.90
37460;DHT22;23318;50.966;5.284;2023-09-19T07:12:00;15.00;99.90
37460;DHT22;23318;50.966;5.284;2023-09-19T07:14:26;15.20;99.90
37460;DHT22;23318;50.966;5.284;2023-09-19T07:16:52;15.20;99.90
37460;DHT22;23318;50.966;5.284;2023-09-19T07:19:18;15.10;99.90
37460;DHT22;23318;50.966;5.284;2023-09-19T07:21:43;15.20;99.90
37460;DHT22;23318;50.966;5.284;2023-09-19T07:24:09;15.20;99.90
37460;DHT22;23318;50.966;5.284;2023-09-19T07:26:35;15.20;99.90
37460;DHT22;23318;50.966;5.284;2023-09-19T07:29:00;15.30;99.90
37460;DHT22;23318;50.966;5.284;2023-09-19T07:31:30;15.40;99.90
37460;DHT22;23318;50.966;5.284;2023-09-19T07:33:56;15.50;99.90
37460;DHT22;23318;50.966;5.284;2023-09-19T07:36:22;15.40;99.90
37460;DHT22;23318;50.966;5.284;2023-09-19T07:38:49;15.40;99.90
37460;DHT22;23318;50.966;5.284;2023-09-19T07:41:15;15.50;99.90
37460;DHT22;23318;50.966;5.284;2023-09-19T07:43:41;15.60;99.90
37460;DHT22;23318;50.966;5.284;2023-09-19T07:46:07;15.50;99.90
37460;DHT22;23318;50.966;5.284;2023-09-19T07:48:35;15.40;99.90
37460;DHT22;23318;50.966;5.284;2023-09-19T07:51:05;15.50;99.90
37460;DHT22;23318;50.966;5.284;2023-09-19T07:53:33;15.50;99.90
37460;DHT22;23318;50.966;5.284;2023-09-19T07:56:07;15.50;99.90
37460;DHT22;23318;50.966;5.284;2023-09-19T07:58:33;15.60;99.90
37460;DHT22;23318;50.966;5.284;2023-09-19T08:01:06;15.70;99.90
37460;DHT22;23318;50.966;5.284;2023-09-19T08:03:35;15.70;99.90
37460;DHT22;23318;50.966;5.284;2023-09-19T08:06:06;15.80;99.90
37460;DHT22;23318;50.966;5.284;2023-09-19T08:08:32;15.70;99.90
37460;DHT22;23318;50.966;5.284;2023-09-19T08:11:00;15.80;99.90
37460;DHT22;23318;50.966;5.284;2023-09-19T08:13:26;15.90;99.90
37460;DHT22;23318;50.966;5.284;2023-09-19T08:15:52;16.00;99.90
37460;DHT22;23318;50.966;5.284;2023-09-19T08:18:20;16.10;99.90
37460;DHT22;23318;50.966;5.284;2023-09-19T08:20:51;16.20;99.90
37460;DHT22;23318;50.966;5.284;2023-09-19T08:23:17;16.10;99.90
37460;DHT22;23318;50.966;5.284;2023-09-19T08:25:48;16.30;99.90
37460;DHT22;23318;50.966;5.284;2023-09-19T08:28:13;16.30;99.90
37460;DHT22;23318;50.966;5.284;2023-09-19T08:30:45;16.40;99.90
37460;DHT22;23318;50.966;5.284;2023-09-19T08:33:11;16.40;99.90
37460;DHT22;23318;50.966;5.284;2023-09-19T08:35:37;16.60;99.90
37460;DHT22;23318;50.966;5.284;2023-09-19T08:38:05;16.50;99.90
37460;DHT22;23318;50.966;5.284;2023-09-19T08:40:32;16.60;99.90
37460;DHT22;23318;50.966;5.284;2023-09-19T08:42:59;16.60;99.90
37460;DHT22;23318;50.966;5.284;2023-09-19T08:45:26;16.60;99.90
37460;DHT22;23318;50.966;5.284;2023-09-19T08:48:03;16.60;99.90
37460;DHT22;23318;50.966;5.284;2023-09-19T08:50:43;16.70;99.90
37460;DHT22;23318;50.966;5.284;2023-09-19T08:53:19;16.70;99.90
37460;DHT22;23318;50.966;5.284;2023-09-19T08:55:46;16.70;99.90
37460;DHT22;23318;50.966;5.284;2023-09-19T08:58:17;16.80;99.90
37460;DHT22;23318;50.966;5.284;2023-09-19T09:00:47;16.80;99.90
37460;DHT22;23318;50.966;5.284;2023-09-19T09:03:16;17.00;99.90
37460;DHT22;23318;50.966;5.284;2023-09-19T09:05:46;17.10;99.90
37460;DHT22;23318;50.966;5.284;2023-09-19T09:08:13;17.10;99.90
37460;DHT22;23318;50.966;5.284;2023-09-19T09:10:39;17.30;99.90
37460;DHT22;23318;50.966;5.284;2023-09-19T09:13:06;17.20;99.90
37460;DHT22;23318;50.966;5.284;2023-09-19T09:15:35;17.10;99.90
37460;DHT22;23318;50.966;5.284;2023-09-19T09:18:02;17.30;99.90
37460;DHT22;23318;50.966;5.284;2023-09-19T09:20:30;17.10;99.90
37460;DHT22;23318;50.966;5.284;2023-09-19T09:22:57;17.20;99.90
37460;DHT22;23318;50.966;5.284;2023-09-19T09:25:51;17.30;99.90
37460;DHT22;23318;50.966;5.284;2023-09-19T09:28:23;17.50;99.90
37460;DHT22;23318;50.966;5.284;2023-09-19T09:30:49;17.40;99.90
37460;DHT22;23318;50.966;5.284;2023-09-19T09:33:16;17.50;99.90
37460;DHT22;23318;50.966;5.284;2023-09-19T09:38:22;17.70;99.90
37460;DHT22;23318;50.966;5.284;2023-09-19T09:40:57;17.80;99.90
37460;DHT22;23318;50.966;5.284;2023-09-19T09:43:34;18.00;99.90
37460;DHT22;23318;50.966;5.284;2023-09-19T09:51:40;17.90;99.90
37460;DHT22;23318;50.966;5.284;2023-09-19T09:54:18;17.90;99.90
37460;DHT22;23318;50.966;5.284;2023-09-19T09:57:00;17.90;99.90
37460;DHT22;23318;50.966;5.284;2023-09-19T09:59:56;17.90;99.90
37460;DHT22;23318;50.966;5.284;2023-09-19T10:02:41;18.00;99.90
37460;DHT22;23318;50.966;5.284;2023-09-19T10:07:47;17.90;99.90
37460;DHT22;23318;50.966;5.284;2023-09-19T10:10:38;17.90;99.90
37460;DHT22;23318;50.966;5.284;2023-09-19T10:13:25;17.90;99.90
37460;DHT22;23318;50.966;5.284;2023-09-19T10:15:55;18.10;99.90
37460;DHT22;23318;50.966;5.284;2023-09-19T10:18:24;18.10;99.90
37460;DHT22;23318;50.966;5.284;2023-09-19T10:20:50;18.20;99.90
37460;DHT22;23318;50.966;5.284;2023-09-19T10:23:21;18.50;99.90
37460;DHT22;23318;50.966;5.284;2023-09-19T10:25:51;18.20;99.90
37460;DHT22;23318;50.966;5.284;2023-09-19T10:28:18;18.60;99.90
37460;DHT22;23318;50.966;5.284;2023-09-19T10:30:49;18.90;99.90
37460;DHT22;23318;50.966;5.284;2023-09-19T10:33:25;19.30;99.90
37460;DHT22;23318;50.966;5.284;2023-09-19T10:35:57;19.60;99.90
37460;DHT22;23318;50.966;5.284;2023-09-19T10:38:26;19.90;99.90
37460;DHT22;23318;50.966;5.284;2023-09-19T10:40:54;19.40;99.90
37460;DHT22;23318;50.966;5.284;2023-09-19T10:43:26;20.20;99.90
37460;DHT22;23318;50.966;5.284;2023-09-19T10:46:00;20.70;99.90
37460;DHT22;23318;50.966;5.284;2023-09-19T10:48:26;20.80;99.90
37460;DHT22;23318;50.966;5.284;2023-09-19T10:51:23;20.80;99.90
37460;DHT22;23318;50.966;5.284;2023-09-19T10:54:05;20.60;99.90
37460;DHT22;23318;50.966;5.284;2023-09-19T10:56:36;20.40;99.90
37460;DHT22;23318;50.966;5.284;2023-09-19T10:59:15;21.10;99.90
37460;DHT22;23318;50.966;5.284;2023-09-19T11:01:46;20.90;99.90
37460;DHT22;23318;50.966;5.284;2023-09-19T11:04:32;21.30;99.90
37460;DHT22;23318;50.966;5.284;2023-09-19T11:09:52;21.20;99.90
37460;DHT22;23318;50.966;5.284;2023-09-19T11:15:01;21.50;99.90
37460;DHT22;23318;50.966;5.284;2023-09-19T11:17:35;21.30;99.90
37460;DHT22;23318;50.966;5.284;2023-09-19T11:30:42;21.90;98.90
37460;DHT22;23318;50.966;5.284;2023-09-19T11:33:27;20.90;99.80
37460;DHT22;23318;50.966;5.284;2023-09-19T11:36:06;21.40;99.60
37460;DHT22;23318;50.966;5.284;2023-09-19T11:43:48;22.40;99.30
37460;DHT22;23318;50.966;5.284;2023-09-19T11:46:13;23.00;98.40
37460;DHT22;23318;50.966;5.284;2023-09-19T11:48:43;22.80;98.70
37460;DHT22;23318;50.966;5.284;2023-09-19T11:51:14;23.70;98.40
37460;DHT22;23318;50.966;5.284;2023-09-19T11:53:50;23.10;98.40
37460;DHT22;23318;50.966;5.284;2023-09-19T11:56:21;22.80;99.00
37460;DHT22;23318;50.966;5.284;2023-09-19T11:58:50;23.00;98.70
37460;DHT22;23318;50.966;5.284;2023-09-19T12:01:32;22.40;98.80
37460;DHT22;23318;50.966;5.284;2023-09-19T12:04:00;23.40;98.50
37460;DHT22;23318;50.966;5.284;2023-09-19T12:06:28;23.80;97.70
37460;DHT22;23318;50.966;5.284;2023-09-19T12:09:03;23.10;98.30
37460;DHT22;23318;50.966;5.284;2023-09-19T12:11:32;21.60;99.20
37460;DHT22;23318;50.966;5.284;2023-09-19T12:13:59;21.10;99.70
37460;DHT22;23318;50.966;5.284;2023-09-19T12:16:26;20.60;99.90
37460;DHT22;23318;50.966;5.284;2023-09-19T12:18:56;20.70;99.90
37460;DHT22;23318;50.966;5.284;2023-09-19T12:21:26;20.70;99.90
37460;DHT22;23318;50.966;5.284;2023-09-19T12:26:29;20.90;99.90
37460;DHT22;23318;50.966;5.284;2023-09-19T12:28:59;21.20;99.90
37460;DHT22;23318;50.966;5.284;2023-09-19T12:31:27;20.80;99.90
37460;DHT22;23318;50.966;5.284;2023-09-19T12:33:54;20.30;99.90
37460;DHT22;23318;50.966;5.284;2023-09-19T12:36:23;20.10;99.90
37460;DHT22;23318;50.966;5.284;2023-09-19T12:38:59;20.40;99.90
37460;DHT22;23318;50.966;5.284;2023-09-19T12:41:28;21.80;99.90
37460;DHT22;23318;50.966;5.284;2023-09-19T12:43:54;22.40;99.20
37460;DHT22;23318;50.966;5.284;2023-09-19T12:46:21;22.10;99.40
37460;DHT22;23318;50.966;5.284;2023-09-19T12:51:42;21.10;99.90
37460;DHT22;23318;50.966;5.284;2023-09-19T12:54:09;20.20;99.90
37460;DHT22;23318;50.966;5.284;2023-09-19T12:56:43;20.00;99.90
37460;DHT22;23318;50.966;5.284;2023-09-19T12:59:13;19.70;99.90
37460;DHT22;23318;50.966;5.284;2023-09-19T13:01:40;19.70;99.90
37460;DHT22;23318;50.966;5.284;2023-09-19T13:04:21;19.80;99.90
37460;DHT22;23318;50.966;5.284;2023-09-19T13:06:55;20.30;99.90
37460;DHT22;23318;50.966;5.284;2023-09-19T13:09:26;20.30;99.90
37460;DHT22;23318;50.966;5.284;2023-09-19T13:12:00;20.20;99.90
37460;DHT22;23318;50.966;5.284;2023-09-19T13:14:29;20.20;99.90
37460;DHT22;23318;50.966;5.284;2023-09-19T13:17:09;20.00;99.90
37460;DHT22;23318;50.966;5.284;2023-09-19T13:19:50;20.00;99.90
37460;DHT22;23318;50.966;5.284;2023-09-19T13:22:40;20.10;99.90
37460;DHT22;23318;50.966;5.284;2023-09-19T13:25:18;20.20;99.90
37460;DHT22;23318;50.966;5.284;2023-09-19T13:27:45;20.30;99.90
37460;DHT22;23318;50.966;5.284;2023-09-19T13:30:12;20.40;99.90
37460;DHT22;23318;50.966;5.284;2023-09-19T13:32:38;20.40;99.90
37460;DHT22;23318;50.966;5.284;2023-09-19T13:35:06;20.50;99.90
37460;DHT22;23318;50.966;5.284;2023-09-19T13:37:34;20.10;99.90
37460;DHT22;23318;50.966;5.284;2023-09-19T13:40:07;20.00;99.90
37460;DHT22;23318;50.966;5.284;2023-09-19T13:42:33;20.10;99.90
37460;DHT22;23318;50.966;5.284;2023-09-19T13:44:59;20.20;99.90
37460;DHT22;23318;50.966;5.284;2023-09-19T13:47:24;20.50;99.90
37460;DHT22;23318;50.966;5.284;2023-09-19T13:49:52;20.70;99.90
37460;DHT22;23318;50.966;5.284;2023-09-19T13:52:19;20.70;99.90
37460;DHT22;23318;50.966;5.284;2023-09-19T13:54:44;20.60;99.90
37460;DHT22;23318;50.966;5.284;2023-09-19T13:57:10;20.30;99.90
37460;DHT22;23318;50.966;5.284;2023-09-19T13:59:36;20.20;99.90
37460;DHT22;23318;50.966;5.284;2023-09-19T14:02:02;20.00;99.90
37460;DHT22;23318;50.966;5.284;2023-09-19T14:04:31;19.90;99.90
37460;DHT22;23318;50.966;5.284;2023-09-19T14:06:57;19.80;99.90
37460;DHT22;23318;50.966;5.284;2023-09-19T14:09:23;19.70;99.90
37460;DHT22;23318;50.966;5.284;2023-09-19T14:11:50;19.60;99.90
37460;DHT22;23318;50.966;5.284;2023-09-19T14:14:19;19.60;99.90
37460;DHT22;23318;50.966;5.284;2023-09-19T14:16:46;19.50;99.90
37460;DHT22;23318;50.966;5.284;2023-09-19T14:19:11;19.50;99.90
37460;DHT22;23318;50.966;5.284;2023-09-19T14:21:39;19.50;99.90
37460;DHT22;23318;50.966;5.284;2023-09-19T14:24:05;19.40;99.90
37460;DHT22;23318;50.966;5.284;2023-09-19T14:26:44;19.40;99.90
37460;DHT22;23318;50.966;5.284;2023-09-19T14:29:10;19.40;99.90
37460;DHT22;23318;50.966;5.284;2023-09-19T14:31:37;19.50;99.90
37460;DHT22;23318;50.966;5.284;2023-09-19T14:34:05;19.70;99.90
37460;DHT22;23318;50.966;5.284;2023-09-19T14:36:31;19.50;99.90
37460;DHT22;23318;50.966;5.284;2023-09-19T14:38:57;19.70;99.90
37460;DHT22;23318;50.966;5.284;2023-09-19T14:41:23;19.80;99.90
37460;DHT22;23318;50.966;5.284;2023-09-19T14:43:51;19.70;99.90
37460;DHT22;23318;50.966;5.284;2023-09-19T14:46:18;19.80;99.90
37460;DHT22;23318;50.966;5.284;2023-09-19T14:48:45;20.00;99.90
37460;DHT22;23318;50.966;5.284;2023-09-19T14:51:14;20.00;99.90
37460;DHT22;23318;50.966;5.284;2023-09-19T14:53:40;19.80;99.90
37460;DHT22;23318;50.966;5.284;2023-09-19T14:56:10;19.80;99.90
37460;DHT22;23318;50.966;5.284;2023-09-19T14:58:37;19.80;99.90
37460;DHT22;23318;50.966;5.284;2023-09-19T15:01:08;19.70;99.90
37460;DHT22;23318;50.966;5.284;2023-09-19T15:03:36;19.70;99.90
37460;DHT22;23318;50.966;5.284;2023-09-19T15:06:03;19.60;99.90
37460;DHT22;23318;50.966;5.284;2023-09-19T15:08:41;19.70;99.90
37460;DHT22;23318;50.966;5.284;2023-09-19T15:11:13;19.80;99.90
37460;DHT22;23318;50.966;5.284;2023-09-19T15:13:41;19.70;99.90
37460;DHT22;23318;50.966;5.284;2023-09-19T15:16:08;19.70;99.90
37460;DHT22;23318;50.966;5.284;2023-09-19T15:18:39;19.60;99.90
37460;DHT22;23318;50.966;5.284;2023-09-19T15:21:07;19.70;99.90
37460;DHT22;23318;50.966;5.284;2023-09-19T15:23:33;20.10;99.90
37460;DHT22;23318;50.966;5.284;2023-09-19T15:26:07;20.20;99.90
37460;DHT22;23318;50.966;5.284;2023-09-19T15:28:34;20.30;99.90
37460;DHT22;23318;50.966;5.284;2023-09-19T15:31:00;20.30;99.90
37460;DHT22;23318;50.966;5.284;2023-09-19T15:33:26;20.10;99.90
37460;DHT22;23318;50.966;5.284;2023-09-19T15:38:29;21.30;99.90
37460;DHT22;23318;50.966;5.284;2023-09-19T15:40:59;22.30;99.90
37460;DHT22;23318;50.966;5.284;2023-09-19T15:43:25;22.20;99.90
37460;DHT22;23318;50.966;5.284;2023-09-19T15:45:51;21.60;99.90
37460;DHT22;23318;50.966;5.284;2023-09-19T15:48:17;20.70;99.90
37460;DHT22;23318;50.966;5.284;2023-09-19T15:50:44;20.00;99.90
37460;DHT22;23318;50.966;5.284;2023-09-19T15:53:10;19.50;99.90
37460;DHT22;23318;50.966;5.284;2023-09-19T15:55:41;19.40;99.90
37460;DHT22;23318;50.966;5.284;2023-09-19T15:58:07;19.40;99.90
37460;DHT22;23318;50.966;5.284;2023-09-19T16:00:33;19.40;99.90
37460;DHT22;23318;50.966;5.284;2023-09-19T16:03:02;19.40;99.90
37460;DHT22;23318;50.966;5.284;2023-09-19T16:05:34;19.30;99.90
37460;DHT22;23318;50.966;5.284;2023-09-19T16:08:05;19.20;99.90
37460;DHT22;23318;50.966;5.284;2023-09-19T16:10:35;19.20;99.90
37460;DHT22;23318;50.966;5.284;2023-09-19T16:13:02;19.10;99.90
37460;DHT22;23318;50.966;5.284;2023-09-19T16:15:29;19.10;99.90
37460;DHT22;23318;50.966;5.284;2023-09-19T16:17:55;19.20;99.90
37460;DHT22;23318;50.966;5.284;2023-09-19T16:20:20;19.10;99.90
37460;DHT22;23318;50.966;5.284;2023-09-19T16:22:48;19.00;99.90
37460;DHT22;23318;50.966;5.284;2023-09-19T16:25:14;18.90;99.90
37460;DHT22;23318;50.966;5.284;2023-09-19T16:27:40;19.00;99.90
37460;DHT22;23318;50.966;5.284;2023-09-19T16:30:06;18.90;99.90
37460;DHT22;23318;50.966;5.284;2023-09-19T16:32:35;18.90;99.90
37460;DHT22;23318;50.966;5.284;2023-09-19T16:35:01;18.90;99.90
37460;DHT22;23318;50.966;5.284;2023-09-19T16:37:28;18.90;99.90
37460;DHT22;23318;50.966;5.284;2023-09-19T16:39:54;18.90;99.90
37460;DHT22;23318;50.966;5.284;2023-09-19T16:42:19;18.80;99.90
37460;DHT22;23318;50.966;5.284;2023-09-19T16:44:46;18.80;99.90